Time;durP1;ratioP1;P1;durP2;ratioP2;P2;SDS_P1;SDS_P2;PMS_P1;PMS_P2;Temp;Humidity;BMP_temperature;BMP_pressure;BME280_temperature;BME280_humidity;BME280_pressure;Samples;Min_cycle;Max_cycle;Signal;HPM_P1;HPM_P2
2022/01/28 00:04:47;;;;;;;24.92;3.15;;;;;;;;;;5087324;28;20455;-68
2022/01/28 00:07:12;;;;;;;27.25;3.65;;;;;;;;;;5091110;28;20088;-68
2022/01/28 00:09:37;;;;;;;24.33;3.17;;;;;;;;;;5091129;28;20059;-68
2022/01/28 00:12:03;;;;;;;28.65;2.97;;;;;;;;;;5091130;28;20023;-68
2022/01/28 00:37:01;;;;;;;21.92;3.60;;;;;;;;;;5108947;28;20111;-68
2022/01/28 00:39:26;;;;;;;;;;;;;;;;;;5090799;28;20020;-68
2022/01/28 00:41:52;;;;;;;26.92;3.13;;;;;;;;;;5090557;28;19908;-68
2022/01/28 00:44:18;;;;;;;19.55;4.40;;;;;;;;;;5090029;28;20024;-67
2022/01/28 00:46:43;;;;;;;29.27;3.58;;;;;;;;;;5090730;28;20456;-67
2022/01/28 00:49:08;;;;;;;25.60;4.70;;;;;;;;;;5089022;28;20111;-67
2022/01/28 00:51:33;;;;;;;19.98;3.28;;;;;;;;;;5094066;28;20610;-67
2022/01/28 00:53:59;;;;;;;25.52;3.70;;;;;;;;;;5102968;28;20016;-68
2022/01/28 00:56:24;;;;;;;23.23;2.90;;;;;;;;;;5089975;28;20030;-67
2022/01/28 00:58:49;;;;;;;15.68;2.15;;;;;;;;;;5089711;28;20065;-68
2022/01/28 01:01:14;;;;;;;21.20;3.38;;;;;;;;;;5090057;28;20065;-67
2022/01/28 01:03:39;;;;;;;22.58;5.25;;;;;;;;;;5089977;28;20055;-68
2022/01/28 01:06:05;;;;;;;13.70;3.17;;;;;;;;;;5089355;28;20487;-67
2022/01/28 01:08:30;;;;;;;20.60;2.65;;;;;;;;;;5093213;28;20064;-67
2022/01/28 01:10:55;;;;;;;18.80;2.80;;;;;;;;;;5098862;28;20032;-67
2022/01/28 01:13:20;;;;;;;33.65;3.20;;;;;;;;;;5089860;28;20024;-67
2022/01/28 01:15:50;;;;;;;19.50;2.70;;;;;;;;;;5089939;28;20103;-68
2022/01/28 01:18:22;;;;;;;26.77;3.72;;;;;;;;;;5089406;28;20030;-67
2022/01/28 01:23:28;;;;;;;12.13;2.53;;;;;;;;;;5089794;28;20606;-67
2022/01/28 01:28:32;;;;;;;21.98;3.08;;;;;;;;;;5083366;28;20189;-68
2022/01/28 01:31:00;;;;;;;26.55;3.17;;;;;;;;;;5089971;28;20016;-67
2022/01/28 01:33:27;;;;;;;16.20;2.20;;;;;;;;;;5089619;28;20024;-67
2022/01/28 01:35:52;;;;;;;18.50;2.90;;;;;;;;;;5089614;28;20020;-67
2022/01/28 01:38:17;;;;;;;21.55;2.63;;;;;;;;;;5089593;28;20058;-67
2022/01/28 01:40:51;;;;;;;15.65;3.10;;;;;;;;;;5090327;28;20024;-67
2022/01/28 01:45:58;;;;;;;19.48;2.88;;;;;;;;;;5101892;28;20027;-67
2022/01/28 01:53:51;;;;;;;22.13;3.40;;;;;;;;;;5088706;28;20438;-67
2022/01/28 01:56:17;;;;;;;22.65;4.13;;;;;;;;;;5083891;28;20032;-67
2022/01/28 01:58:42;;;;;;;22.55;2.92;;;;;;;;;;5089504;28;20024;-66
2022/01/28 02:01:08;;;;;;;21.52;2.53;;;;;;;;;;5093252;28;20062;-67
2022/01/28 02:03:33;;;;;;;10.02;1.90;;;;;;;;;;5093871;28;20056;-67
2022/01/28 02:05:59;;;;;;;18.42;2.20;;;;;;;;;;5093110;28;20665;-66
2022/01/28 02:08:25;;;;;;;14.07;3.35;;;;;;;;;;5093270;28;20036;-66
2022/01/28 02:10:50;;;;;;;28.23;4.55;;;;;;;;;;5093365;28;20026;-67
2022/01/28 02:13:15;;;;;;;29.23;3.60;;;;;;;;;;5093244;28;20024;-66
2022/01/28 02:15:40;;;;;;;25.05;2.72;;;;;;;;;;5092619;28;20028;-67
2022/01/28 02:18:06;;;;;;;21.40;3.80;;;;;;;;;;5092686;28;20077;-68
2022/01/28 02:20:37;;;;;;;32.60;4.18;;;;;;;;;;5093623;28;20031;-67
2022/01/28 02:23:03;;;;;;;25.45;2.65;;;;;;;;;;5092988;28;20099;-67
2022/01/28 02:25:30;;;;;;;30.33;2.50;;;;;;;;;;5082447;28;20024;-67
2022/01/28 02:27:59;;;;;;;26.75;2.90;;;;;;;;;;5091651;28;20035;-66
2022/01/28 02:30:24;;;;;;;21.35;3.65;;;;;;;;;;5092284;28;20168;-67
2022/01/28 02:32:50;;;;;;;17.00;2.67;;;;;;;;;;5092901;28;20516;-67
2022/01/28 02:35:16;;;;;;;22.80;2.50;;;;;;;;;;5092262;28;20107;-68
2022/01/28 02:37:41;;;;;;;22.60;3.40;;;;;;;;;;5092314;28;20110;-66
2022/01/28 02:40:07;;;;;;;17.45;2.90;;;;;;;;;;5093827;28;20024;-68
2022/01/28 02:42:48;;;;;;;24.58;3.40;;;;;;;;;;5085456;28;20134;-66
2022/01/28 02:45:24;;;;;;;22.70;3.38;;;;;;;;;;5092032;28;20503;-67
2022/01/28 02:47:54;;;;;;;21.10;3.30;;;;;;;;;;5092819;28;20016;-67
2022/01/28 02:50:20;;;;;;;18.95;2.70;;;;;;;;;;5092454;28;20387;-67
2022/01/28 02:53:00;;;;;;;27.38;4.40;;;;;;;;;;5093110;28;20027;-66
2022/01/28 02:55:26;;;;;;;23.95;3.25;;;;;;;;;;5089430;22;20044;-66
2022/01/28 02:58:03;;;;;;;27.05;3.05;;;;;;;;;;5071435;28;20020;-67
2022/01/28 03:00:28;;;;;;;17.75;3.28;;;;;;;;;;5071806;28;20025;-67
2022/01/28 03:02:53;;;;;;;27.15;4.85;;;;;;;;;;5072388;28;20031;-67
2022/01/28 03:07:46;;;;;;;29.80;3.47;;;;;;;;;;5072145;28;20051;-67
2022/01/28 03:12:59;;;;;;;16.38;2.55;;;;;;;;;;5071521;28;20538;-68
2022/01/28 03:15:23;;;;;;;28.17;3.40;;;;;;;;;;5070842;28;20373;-67
2022/01/28 03:18:07;;;;;;;23.60;4.15;;;;;;;;;;5071622;28;20376;-67
2022/01/28 03:20:55;;;;;;;20.35;3.15;;;;;;;;;;5072113;28;20056;-67
2022/01/28 03:23:17;;;;;;;17.75;2.83;;;;;;;;;;5069805;28;20052;-67
2022/01/28 03:25:44;;;;;;;10.88;2.17;;;;;;;;;;5071641;28;20089;-67
2022/01/28 03:28:11;;;;;;;17.60;2.03;;;;;;;;;;5071807;28;20028;-67
2022/01/28 03:30:36;;;;;;;21.90;2.60;;;;;;;;;;5071425;28;20030;-66
2022/01/28 03:33:01;;;;;;;20.70;3.03;;;;;;;;;;5071523;28;20028;-67
2022/01/28 03:35:26;;;;;;;20.02;3.15;;;;;;;;;;5071350;28;20043;-67
2022/01/28 03:38:00;;;;;;;27.73;3.95;;;;;;;;;;5071274;28;20476;-67
2022/01/28 03:40:26;;;;;;;24.70;2.83;;;;;;;;;;5071571;28;20028;-66
2022/01/28 03:42:51;;;;;;;18.88;3.28;;;;;;;;;;5071349;28;20027;-67
2022/01/28 03:45:17;;;;;;;21.77;3.33;;;;;;;;;;5071108;28;20021;-66
2022/01/28 03:47:42;;;;;;;23.92;3.03;;;;;;;;;;5070628;28;20278;-67
2022/01/28 03:50:07;;;;;;;22.73;2.60;;;;;;;;;;5052550;28;20024;-67
2022/01/28 03:52:32;;;;;;;24.73;3.22;;;;;;;;;;5071356;28;20031;-67
2022/01/28 03:54:58;;;;;;;21.00;3.40;;;;;;;;;;5070924;28;20029;-67
2022/01/28 03:57:23;;;;;;;27.20;2.93;;;;;;;;;;5070909;28;20039;-67
2022/01/28 03:59:48;;;;;;;29.38;3.67;;;;;;;;;;5071253;28;20302;-67
2022/01/28 04:02:18;;;;;;;20.33;2.37;;;;;;;;;;5070611;28;20062;-68
2022/01/28 04:12:40;;;;;;;23.70;2.80;;;;;;;;;;5071065;28;20044;-67
2022/01/28 04:17:31;;;;;;;20.85;3.67;;;;;;;;;;5070618;28;20024;-67
2022/01/28 04:19:56;;;;;;;16.73;2.65;;;;;;;;;;5070388;28;20052;-67
2022/01/28 04:22:21;;;;;;;30.25;3.75;;;;;;;;;;5070079;28;20044;-67
2022/01/28 04:24:47;;;;;;;40.60;3.28;;;;;;;;;;5069807;28;20012;-66
2022/01/28 04:27:12;;;;;;;35.38;3.63;;;;;;;;;;5054704;28;20388;-67
2022/01/28 04:29:38;;;;;;;22.73;3.05;;;;;;;;;;5070216;28;20103;-67
2022/01/28 04:32:03;;;;;;;16.83;2.92;;;;;;;;;;5070719;28;20366;-67
2022/01/28 04:34:29;;;;;;;17.73;2.50;;;;;;;;;;5070488;28;20028;-66
2022/01/28 04:42:43;;;;;;;21.60;2.75;;;;;;;;;;5070323;28;20086;-67
2022/01/28 04:47:45;;;;;;;30.27;3.30;;;;;;;;;;5070365;28;20503;-67
2022/01/28 04:53:17;;;;;;;;;;;;;;;;;;5070328;28;20078;-67
2022/01/28 04:55:59;;;;;;;16.88;2.40;;;;;;;;;;5050479;28;20288;-67
2022/01/28 05:03:32;;;;;;;18.48;3.30;;;;;;;;;;5069734;28;20028;-67
2022/01/28 05:27:12;;;;;;;17.17;2.28;;;;;;;;;;5069736;28;20027;-67
2022/01/28 05:29:40;;;;;;;14.95;2.95;;;;;;;;;;5070144;28;20112;-67
2022/01/28 05:32:07;;;;;;;26.75;2.90;;;;;;;;;;5069830;28;20024;-67
2022/01/28 05:34:32;;;;;;;21.88;2.83;;;;;;;;;;5071315;28;20066;-66
2022/01/28 05:36:57;;;;;;;17.95;4.50;;;;;;;;;;5074385;28;20021;-67
2022/01/28 05:39:22;;;;;;;24.95;2.67;;;;;;;;;;5073703;28;20358;-67
2022/01/28 05:41:47;;;;;;;28.55;4.25;;;;;;;;;;5074026;28;20027;-67
2022/01/28 05:44:13;;;;;;;14.45;2.22;;;;;;;;;;5073527;28;20035;-67
2022/01/28 05:46:38;;;;;;;19.60;3.22;;;;;;;;;;5072454;28;20067;-68
2022/01/28 05:49:04;;;;;;;28.98;2.63;;;;;;;;;;5073376;28;20025;-67
2022/01/28 05:51:29;;;;;;;16.45;3.30;;;;;;;;;;5073503;28;20603;-67
2022/01/28 05:53:57;;;;;;;29.48;3.90;;;;;;;;;;5073322;28;20025;-67
2022/01/28 05:56:22;;;;;;;18.80;2.78;;;;;;;;;;5055478;28;20035;-67
2022/01/28 05:58:48;;;;;;;31.90;3.50;;;;;;;;;;5073349;28;20024;-67
2022/01/28 06:01:13;;;;;;;18.55;3.85;;;;;;;;;;5072626;28;20321;-66
2022/01/28 06:03:39;;;;;;;22.20;2.67;;;;;;;;;;5073390;28;20012;-67
2022/01/28 06:06:04;;;;;;;26.85;3.08;;;;;;;;;;5073082;28;20024;-67
2022/01/28 06:08:29;;;;;;;21.45;3.58;;;;;;;;;;5067528;28;20472;-67
2022/01/28 06:10:54;;;;;;;21.77;3.13;;;;;;;;;;5071623;28;20024;-67
2022/01/28 06:13:20;;;;;;;18.13;2.53;;;;;;;;;;5070813;28;20112;-68
2022/01/28 06:15:45;;;;;;;22.52;3.25;;;;;;;;;;5070547;28;20039;-67
2022/01/28 06:18:11;;;;;;;28.25;3.80;;;;;;;;;;5070311;28;20491;-66
2022/01/28 06:20:36;;;;;;;17.73;3.00;;;;;;;;;;5071217;28;20024;-68
2022/01/28 06:23:01;;;;;;;38.58;3.00;;;;;;;;;;5070954;28;20213;-67
2022/01/28 06:25:26;;;;;;;23.52;3.08;;;;;;;;;;5070585;28;20115;-68
2022/01/28 06:27:52;;;;;;;24.98;4.10;;;;;;;;;;5071273;28;20032;-66
2022/01/28 06:30:18;;;;;;;21.85;4.13;;;;;;;;;;5070503;28;20431;-68
2022/01/28 06:32:44;;;;;;;14.30;3.00;;;;;;;;;;5067455;28;20116;-67
2022/01/28 06:35:09;;;;;;;15.98;2.58;;;;;;;;;;5071225;28;20111;-67
2022/01/28 06:37:35;;;;;;;30.30;3.95;;;;;;;;;;5070441;28;20024;-66
2022/01/28 06:40:00;;;;;;;20.30;3.50;;;;;;;;;;5070669;28;20031;-67
2022/01/28 06:42:26;;;;;;;22.75;4.38;;;;;;;;;;5070204;28;20020;-66
2022/01/28 06:44:51;;;;;;;20.93;3.83;;;;;;;;;;5070148;28;20025;-67
2022/01/28 06:47:16;;;;;;;29.53;4.23;;;;;;;;;;5069936;28;20285;-66
2022/01/28 06:49:41;;;;;;;24.00;4.00;;;;;;;;;;5070482;28;20271;-68
2022/01/28 06:52:07;;;;;;;28.88;3.05;;;;;;;;;;5070551;28;20263;-67
2022/01/28 06:54:32;;;;;;;34.53;4.35;;;;;;;;;;5065629;28;20025;-66
2022/01/28 06:56:57;;;;;;;23.55;2.92;;;;;;;;;;5069668;28;20028;-67
2022/01/28 06:59:22;;;;;;;23.30;3.50;;;;;;;;;;5064186;28;20032;-67
2022/01/28 07:01:48;;;;;;;18.63;3.55;;;;;;;;;;5071034;28;20159;-67
2022/01/28 07:04:14;;;;;;;20.48;3.95;;;;;;;;;;5067814;28;20016;-67
2022/01/28 07:06:39;;;;;;;22.90;2.95;;;;;;;;;;5072307;28;20016;-66
2022/01/28 07:09:04;;;;;;;24.17;3.20;;;;;;;;;;5071797;28;20029;-67
2022/01/28 07:11:29;;;;;;;19.88;3.35;;;;;;;;;;5071953;28;20017;-67
2022/01/28 07:13:55;;;;;;;25.52;4.10;;;;;;;;;;5072107;28;20392;-67
2022/01/28 07:16:20;;;;;;;25.67;2.97;;;;;;;;;;5072125;28;20387;-67
2022/01/28 07:18:45;;;;;;;22.40;3.65;;;;;;;;;;5070993;28;20404;-66
2022/01/28 07:21:10;;;;;;;17.47;3.10;;;;;;;;;;5072043;28;20066;-67
2022/01/28 07:23:36;;;;;;;18.38;3.35;;;;;;;;;;5072045;28;20770;-67
2022/01/28 07:26:01;;;;;;;24.45;3.28;;;;;;;;;;5069987;28;20024;-66
2022/01/28 07:28:26;;;;;;;23.13;3.88;;;;;;;;;;5071138;28;20025;-67
2022/01/28 07:30:52;;;;;;;22.65;3.80;;;;;;;;;;5072056;28;20437;-67
2022/01/28 07:33:17;;;;;;;16.95;3.53;;;;;;;;;;5072109;28;20430;-67
2022/01/28 07:35:42;;;;;;;27.45;3.70;;;;;;;;;;5071723;28;20031;-67
2022/01/28 07:38:08;;;;;;;25.02;4.88;;;;;;;;;;5071013;28;20024;-67
2022/01/28 07:40:33;;;;;;;26.58;4.05;;;;;;;;;;5069547;28;20017;-66
2022/01/28 07:42:58;;;;;;;28.63;4.53;;;;;;;;;;5070800;28;20020;-66
2022/01/28 07:45:24;;;;;;;22.30;3.53;;;;;;;;;;5070747;28;20013;-67
2022/01/28 07:47:50;;;;;;;16.83;3.67;;;;;;;;;;5070277;28;20420;-67
2022/01/28 07:50:15;;;;;;;22.20;3.85;;;;;;;;;;5071148;28;20060;-67
2022/01/28 07:52:41;;;;;;;24.50;4.35;;;;;;;;;;5070800;28;20020;-66
2022/01/28 07:55:07;;;;;;;26.88;4.10;;;;;;;;;;5068625;28;20077;-66
2022/01/28 07:57:32;;;;;;;19.05;4.35;;;;;;;;;;5070305;28;20029;-66
2022/01/28 07:59:57;;;;;;;18.95;3.92;;;;;;;;;;5070410;28;20477;-66
2022/01/28 08:02:23;;;;;;;26.50;5.13;;;;;;;;;;5070106;28;20610;-66
2022/01/28 08:04:48;;;;;;;25.60;3.72;;;;;;;;;;5070605;28;20020;-66
2022/01/28 08:07:13;;;;;;;29.42;4.05;;;;;;;;;;5063651;28;20433;-66
2022/01/28 08:09:38;;;;;;;15.50;3.72;;;;;;;;;;5067382;28;20121;-66
2022/01/28 08:12:04;;;;;;;32.30;4.32;;;;;;;;;;5070203;28;20389;-66
2022/01/28 08:14:32;;;;;;;20.65;4.05;;;;;;;;;;5070678;28;20376;-66
2022/01/28 08:16:57;;;;;;;22.58;5.57;;;;;;;;;;5070928;28;20030;-66
2022/01/28 08:19:23;;;;;;;17.05;3.40;;;;;;;;;;5070121;28;20024;-66
2022/01/28 08:21:48;;;;;;;25.42;4.88;;;;;;;;;;5070679;28;20028;-66
2022/01/28 08:24:13;;;;;;;22.30;3.75;;;;;;;;;;5070166;28;20017;-66
2022/01/28 08:26:38;;;;;;;15.38;4.25;;;;;;;;;;5070660;28;20398;-66
2022/01/28 08:29:05;;;;;;;21.35;4.00;;;;;;;;;;5070033;28;20031;-66
2022/01/28 08:31:31;;;;;;;31.80;5.22;;;;;;;;;;5068510;28;20066;-66
2022/01/28 08:33:56;;;;;;;27.95;3.50;;;;;;;;;;5069614;28;20016;-66
2022/01/28 08:36:21;;;;;;;14.47;4.13;;;;;;;;;;5069788;28;20020;-66
2022/01/28 08:38:48;;;;;;;20.52;4.55;;;;;;;;;;5069986;28;20362;-66
2022/01/28 08:41:14;;;;;;;17.83;4.47;;;;;;;;;;5066720;28;20032;-66
2022/01/28 08:43:39;;;;;;;26.70;4.13;;;;;;;;;;5063657;28;20020;-66
2022/01/28 08:46:05;;;;;;;27.30;5.00;;;;;;;;;;5069547;28;20021;-66
2022/01/28 08:48:30;;;;;;;24.50;4.60;;;;;;;;;;5070490;28;20103;-66
2022/01/28 08:50:55;;;;;;;35.67;4.40;;;;;;;;;;5069827;28;20029;-66
2022/01/28 08:53:20;;;;;;;22.65;4.95;;;;;;;;;;5070222;28;20615;-66
2022/01/28 08:55:46;;;;;;;21.90;5.97;;;;;;;;;;5109443;22;20041;-66
2022/01/28 08:58:11;;;;;;;22.88;4.90;;;;;;;;;;5031698;28;20048;-65
2022/01/28 09:00:36;;;;;;;23.45;4.75;;;;;;;;;;5049674;28;20020;-66
2022/01/28 09:03:02;;;;;;;15.27;4.35;;;;;;;;;;5049415;28;20048;-67
2022/01/28 09:05:28;;;;;;;21.27;5.50;;;;;;;;;;5057778;28;20024;-66
2022/01/28 09:07:54;;;;;;;25.60;5.75;;;;;;;;;;5069713;28;20215;-65
2022/01/28 09:10:23;;;;;;;26.70;4.97;;;;;;;;;;5068925;28;20035;-66
2022/01/28 09:15:28;;;;;;;21.10;5.07;;;;;;;;;;5069411;28;20420;-66
2022/01/28 09:17:53;;;;;;;19.95;4.05;;;;;;;;;;5069228;28;20028;-66
2022/01/28 09:20:19;;;;;;;21.33;4.03;;;;;;;;;;5069381;28;20028;-66
2022/01/28 09:22:44;;;;;;;27.77;4.97;;;;;;;;;;5069538;28;20317;-66
2022/01/28 09:25:09;;;;;;;29.87;6.67;;;;;;;;;;5068922;28;20021;-65
2022/01/28 09:27:34;;;;;;;26.73;4.97;;;;;;;;;;5068452;28;20833;-66
2022/01/28 09:29:59;;;;;;;21.60;4.30;;;;;;;;;;5070263;28;20038;-65
2022/01/28 09:32:25;;;;;;;24.98;4.85;;;;;;;;;;5069430;28;20035;-67
2022/01/28 09:34:50;;;;;;;25.10;4.32;;;;;;;;;;5069802;28;20028;-65
2022/01/28 09:37:15;;;;;;;20.57;5.30;;;;;;;;;;5069151;28;20016;-69
2022/01/28 09:39:44;;;;;;;25.50;4.97;;;;;;;;;;5068981;28;20270;-65
2022/01/28 09:42:15;;;;;;;21.70;4.85;;;;;;;;;;5069760;28;20074;-66
2022/01/28 09:44:40;;;;;;;17.90;5.10;;;;;;;;;;5069376;28;20048;-66
2022/01/28 09:47:06;;;;;;;29.25;5.45;;;;;;;;;;5050224;28;20040;-66
2022/01/28 09:49:32;;;;;;;24.40;4.95;;;;;;;;;;5068808;28;20032;-66
2022/01/28 09:51:57;;;;;;;24.23;5.82;;;;;;;;;;5069613;28;20085;-65
2022/01/28 09:54:23;;;;;;;23.63;5.43;;;;;;;;;;5069498;28;20509;-65
2022/01/28 09:56:48;;;;;;;20.52;5.25;;;;;;;;;;5068764;28;20038;-66
2022/01/28 09:59:13;;;;;;;22.45;5.90;;;;;;;;;;5050611;28;20106;-65
2022/01/28 10:01:48;;;;;;;31.37;6.80;;;;;;;;;;5068833;28;20059;-66
2022/01/28 10:04:15;;;;;;;21.42;5.57;;;;;;;;;;5068271;28;20630;-66
2022/01/28 10:06:40;;;;;;;26.38;5.72;;;;;;;;;;5069066;28;20016;-66
2022/01/28 10:09:07;;;;;;;20.10;5.60;;;;;;;;;;5068693;28;20039;-66
2022/01/28 10:11:32;;;;;;;20.90;5.75;;;;;;;;;;5069426;28;20094;-67
2022/01/28 10:14:05;;;;;;;26.10;5.75;;;;;;;;;;5069574;28;20040;-65
2022/01/28 10:16:31;;;;;;;24.42;5.55;;;;;;;;;;5068964;28;20016;-66
2022/01/28 10:18:57;;;;;;;40.58;6.47;;;;;;;;;;5069097;28;20039;-65
2022/01/28 10:21:24;;;;;;;21.35;5.63;;;;;;;;;;5071574;28;20103;-66
2022/01/28 10:23:56;;;;;;;25.63;5.50;;;;;;;;;;5073255;28;20016;-65
2022/01/28 10:26:32;;;;;;;27.10;5.97;;;;;;;;;;5072630;28;20021;-65
2022/01/28 10:28:58;;;;;;;18.15;6.60;;;;;;;;;;5072705;28;20119;-65
2022/01/28 10:31:33;;;;;;;36.47;7.88;;;;;;;;;;5072485;28;20092;-66
2022/01/28 10:34:08;;;;;;;29.98;6.15;;;;;;;;;;5072830;28;20021;-66
2022/01/28 10:36:33;;;;;;;22.05;5.20;;;;;;;;;;5072309;28;20421;-66
2022/01/28 10:38:59;;;;;;;21.90;5.80;;;;;;;;;;5072120;28;20075;-65
2022/01/28 10:41:25;;;;;;;25.87;5.43;;;;;;;;;;5072564;28;20096;-66
2022/01/28 10:43:52;;;;;;;23.27;5.18;;;;;;;;;;5072627;28;20261;-66
2022/01/28 10:46:26;;;;;;;28.73;5.78;;;;;;;;;;5071655;28;20528;-67
2022/01/28 10:48:53;;;;;;;27.17;5.38;;;;;;;;;;5072558;28;20032;-66
2022/01/28 10:51:19;;;;;;;25.55;7.80;;;;;;;;;;5072199;28;20503;-65
2022/01/28 10:54:03;;;;;;;23.13;5.28;;;;;;;;;;5072352;28;20486;-66
2022/01/28 10:56:28;;;;;;;19.15;4.75;;;;;;;;;;5070568;28;20097;-65
2022/01/28 10:58:53;;;;;;;27.08;5.18;;;;;;;;;;5071172;28;20032;-66
2022/01/28 11:01:19;;;;;;;25.57;5.07;;;;;;;;;;5071235;28;20091;-66
2022/01/28 11:03:44;;;;;;;16.90;4.82;;;;;;;;;;5071933;28;20328;-65
2022/01/28 11:06:10;;;;;;;21.40;3.95;;;;;;;;;;5072410;28;20447;-66
2022/01/28 11:08:35;;;;;;;26.00;5.53;;;;;;;;;;5072283;28;20052;-65
2022/01/28 11:11:01;;;;;;;18.85;4.10;;;;;;;;;;5071661;28;20021;-68
2022/01/28 11:13:26;;;;;;;35.55;4.57;;;;;;;;;;5072182;28;20066;-66
2022/01/28 11:15:52;;;;;;;26.05;5.20;;;;;;;;;;5071457;28;20039;-66
2022/01/28 11:18:17;;;;;;;17.98;3.80;;;;;;;;;;5071669;28;20024;-67
2022/01/28 11:20:44;;;;;;;26.52;4.40;;;;;;;;;;5071808;28;20077;-67
2022/01/28 11:23:12;;;;;;;24.52;4.30;;;;;;;;;;5072248;28;20020;-67
2022/01/28 11:25:54;;;;;;;32.92;4.57;;;;;;;;;;5053912;28;20374;-66
2022/01/28 11:28:19;;;;;;;25.83;5.22;;;;;;;;;;5053416;28;20016;-66
2022/01/28 11:30:48;;;;;;;29.13;4.35;;;;;;;;;;5070947;28;20388;-65
2022/01/28 11:33:15;;;;;;;25.25;4.95;;;;;;;;;;5070731;28;20362;-65
2022/01/28 11:35:59;;;;;;;26.33;5.32;;;;;;;;;;5071419;28;20096;-65
2022/01/28 11:38:24;;;;;;;25.92;5.50;;;;;;;;;;5070893;28;20044;-65
2022/01/28 11:40:51;;;;;;;20.17;4.25;;;;;;;;;;5071545;28;20040;-65
2022/01/28 11:43:17;;;;;;;30.63;5.10;;;;;;;;;;5070727;28;20024;-65
2022/01/28 11:45:42;;;;;;;24.90;3.83;;;;;;;;;;5071589;28;20419;-65
2022/01/28 11:48:08;;;;;;;30.75;4.00;;;;;;;;;;5071048;28;20046;-66
2022/01/28 11:50:33;;;;;;;15.63;3.55;;;;;;;;;;5071188;28;20055;-65
2022/01/28 11:53:00;;;;;;;21.70;3.47;;;;;;;;;;5071129;28;20055;-65
2022/01/28 11:55:25;;;;;;;26.35;2.33;;;;;;;;;;5071050;28;20030;-65
2022/01/28 11:57:54;;;;;;;21.33;4.15;;;;;;;;;;5071612;28;20025;-65
2022/01/28 12:00:19;;;;;;;16.25;2.47;;;;;;;;;;5070322;28;20054;-66
2022/01/28 12:02:45;;;;;;;15.02;3.05;;;;;;;;;;5070929;28;20012;-65
2022/01/28 12:05:23;;;;;;;27.75;3.65;;;;;;;;;;5070459;28;20020;-66
2022/01/28 12:07:49;;;;;;;21.75;2.83;;;;;;;;;;5071085;28;20016;-64
2022/01/28 12:10:15;;;;;;;28.73;3.50;;;;;;;;;;5070090;28;20115;-65
2022/01/28 12:12:40;;;;;;;24.17;2.95;;;;;;;;;;5070315;28;20017;-65
2022/01/28 12:15:12;;;;;;;24.80;3.30;;;;;;;;;;5070513;28;20024;-66
2022/01/28 12:17:38;;;;;;;24.27;3.17;;;;;;;;;;5069771;28;20020;-65
2022/01/28 12:20:09;;;;;;;23.80;3.22;;;;;;;;;;5070067;28;20024;-65
2022/01/28 12:22:34;;;;;;;28.02;3.55;;;;;;;;;;5065954;28;20017;-64
2022/01/28 12:25:00;;;;;;;26.40;4.67;;;;;;;;;;5070606;28;20385;-65
2022/01/28 12:27:32;;;;;;;22.02;2.83;;;;;;;;;;5070269;28;20278;-68
2022/01/28 12:30:00;;;;;;;19.05;3.58;;;;;;;;;;5069643;28;20111;-65
2022/01/28 12:32:25;;;;;;;30.00;3.45;;;;;;;;;;5061054;28;20020;-66
2022/01/28 12:34:51;;;;;;;23.25;3.75;;;;;;;;;;5069810;28;20032;-65
2022/01/28 12:37:21;;;;;;;25.58;3.13;;;;;;;;;;5070358;28;20031;-65
2022/01/28 12:39:55;;;;;;;;;;;;;;;;;;5070616;28;20117;-65
2022/01/28 12:44:49;;;;;;;18.95;2.72;;;;;;;;;;5070422;28;20488;-67
2022/01/28 12:47:15;;;;;;;12.45;2.85;;;;;;;;;;5069329;28;20105;-64
2022/01/28 12:49:40;;;;;;;27.25;3.60;;;;;;;;;;5070707;28;20063;-66
2022/01/28 12:52:06;;;;;;;28.83;3.83;;;;;;;;;;5070391;28;20082;-65
2022/01/28 12:54:37;;;;;;;13.75;3.30;;;;;;;;;;5070092;28;20263;-65
2022/01/28 12:57:03;;;;;;;20.60;3.50;;;;;;;;;;5069423;28;20051;-66
2022/01/28 12:59:28;;;;;;;21.67;4.07;;;;;;;;;;5068476;28;20404;-65
2022/01/28 13:01:54;;;;;;;21.55;4.28;;;;;;;;;;5069141;28;20021;-65
2022/01/28 13:04:23;;;;;;;21.42;3.83;;;;;;;;;;5069175;28;20056;-65
2022/01/28 13:09:17;;;;;;;24.88;4.78;;;;;;;;;;5068249;28;20031;-66
2022/01/28 13:11:42;;;;;;;20.75;4.68;;;;;;;;;;5070026;28;20063;-66
2022/01/28 13:14:10;;;;;;;16.13;3.47;;;;;;;;;;5069758;28;20465;-66
2022/01/28 13:16:42;;;;;;;18.05;3.75;;;;;;;;;;5069525;28;20271;-65
2022/01/28 13:19:09;;;;;;;17.80;4.20;;;;;;;;;;5069527;28;20028;-65
2022/01/28 13:21:35;;;;;;;21.75;4.25;;;;;;;;;;5069254;28;20017;-65
2022/01/28 13:24:04;;;;;;;29.80;4.95;;;;;;;;;;5069141;28;20537;-65
2022/01/28 13:26:29;;;;;;;23.37;5.17;;;;;;;;;;5069770;28;20127;-66
2022/01/28 13:29:08;;;;;;;16.58;2.70;;;;;;;;;;5069027;28;20537;-65
2022/01/28 13:31:33;;;;;;;17.63;4.05;;;;;;;;;;5069879;28;20042;-65
2022/01/28 13:33:59;;;;;;;14.30;2.70;;;;;;;;;;5070270;28;20043;-64
2022/01/28 13:36:24;;;;;;;20.80;4.05;;;;;;;;;;5069717;28;20024;-65
2022/01/28 13:38:49;;;;;;;17.60;3.30;;;;;;;;;;5068650;28;20511;-65
2022/01/28 13:41:21;;;;;;;18.40;3.28;;;;;;;;;;5069675;28;20024;-64
2022/01/28 13:43:47;;;;;;;21.90;5.13;;;;;;;;;;5070175;28;20020;-64
2022/01/28 13:46:13;;;;;;;12.65;1.80;;;;;;;;;;5068957;28;20575;-65
2022/01/28 13:48:39;;;;;;;10.50;2.05;;;;;;;;;;5069089;28;20039;-66
2022/01/28 13:51:09;;;;;;;17.92;2.85;;;;;;;;;;5069491;28;20133;-65
2022/01/28 13:56:27;;;;;;;10.32;2.17;;;;;;;;;;5068846;28;20170;-66
2022/01/28 13:58:53;;;;;;;18.60;2.22;;;;;;;;;;5065104;28;20107;-66
2022/01/28 14:01:20;;;;;;;25.27;2.83;;;;;;;;;;5069312;28;20044;-65
2022/01/28 14:03:53;;;;;;;14.93;2.85;;;;;;;;;;5072693;28;20533;-66
2022/01/28 14:06:19;;;;;;;14.88;2.95;;;;;;;;;;5073031;28;20526;-64
2022/01/28 14:08:49;;;;;;;17.48;2.75;;;;;;;;;;5073039;28;20431;-66
2022/01/28 14:11:19;;;;;;;16.70;2.08;;;;;;;;;;5073110;28;20089;-66
2022/01/28 14:13:44;;;;;;;20.90;3.45;;;;;;;;;;5072914;28;20039;-66
2022/01/28 14:16:15;;;;;;;17.20;2.67;;;;;;;;;;5072055;28;20029;-66
2022/01/28 14:18:40;;;;;;;18.10;3.55;;;;;;;;;;5071994;28;20070;-66
2022/01/28 14:21:05;;;;;;;26.92;3.40;;;;;;;;;;5072634;28;20723;-65
2022/01/28 14:23:30;;;;;;;16.87;2.97;;;;;;;;;;5071784;28;20154;-66
2022/01/28 14:25:55;;;;;;;9.38;2.40;;;;;;;;;;5071808;28;20271;-65
2022/01/28 14:30:55;;;;;;;26.17;4.33;;;;;;;;;;5072107;28;20404;-64
2022/01/28 14:33:20;;;;;;;18.92;3.05;;;;;;;;;;5072268;28;20289;-64
2022/01/28 14:35:45;;;;;;;23.25;4.90;;;;;;;;;;5071869;28;20077;-66
2022/01/28 14:38:11;;;;;;;27.48;3.22;;;;;;;;;;5072432;28;20364;-64
2022/01/28 14:40:36;;;;;;;16.67;3.38;;;;;;;;;;5072180;28;20063;-65
2022/01/28 14:43:02;;;;;;;16.80;3.83;;;;;;;;;;5072392;28;20196;-65
2022/01/28 14:45:28;;;;;;;16.05;5.03;;;;;;;;;;5071975;28;20136;-65
2022/01/28 14:47:53;;;;;;;25.63;4.97;;;;;;;;;;5072689;28;20509;-64
2022/01/28 14:50:18;;;;;;;21.35;4.60;;;;;;;;;;5072867;28;20021;-66
2022/01/28 14:52:44;;;;;;;25.63;4.55;;;;;;;;;;5072430;28;20098;-65
2022/01/28 14:55:09;;;;;;;16.05;5.57;;;;;;;;;;5099275;22;20024;-68
2022/01/28 14:57:34;;;;;;;22.15;6.50;;;;;;;;;;5112371;28;20030;-67
2022/01/28 14:59:59;;;;;;;22.83;5.60;;;;;;;;;;5112765;28;20039;-67
2022/01/28 15:02:27;;;;;;;24.55;5.28;;;;;;;;;;5112429;28;20754;-67
2022/01/28 15:04:56;;;;;;;26.30;5.82;;;;;;;;;;5113378;28;20047;-67
2022/01/28 15:07:24;;;;;;;19.48;4.18;;;;;;;;;;5092184;28;20030;-67
2022/01/28 15:09:52;;;;;;;23.80;6.93;;;;;;;;;;5091547;28;20034;-67
2022/01/28 15:12:17;;;;;;;16.77;4.38;;;;;;;;;;5082881;28;20024;-67
2022/01/28 15:14:42;;;;;;;22.48;5.13;;;;;;;;;;5092910;28;20016;-67
2022/01/28 15:17:07;;;;;;;23.80;5.25;;;;;;;;;;5092429;28;20046;-67
2022/01/28 15:19:33;;;;;;;20.73;4.60;;;;;;;;;;5092220;28;20024;-67
2022/01/28 15:21:58;;;;;;;27.77;4.90;;;;;;;;;;5091638;28;20292;-68
2022/01/28 15:24:26;;;;;;;27.75;5.72;;;;;;;;;;5087976;28;20092;-67
2022/01/28 15:26:51;;;;;;;29.77;6.97;;;;;;;;;;5086739;28;20012;-67
2022/01/28 15:37:23;;;;;;;16.38;4.97;;;;;;;;;;5091698;28;20119;-67
2022/01/28 15:39:48;;;;;;;21.40;6.55;;;;;;;;;;5090733;28;20114;-67
2022/01/28 15:42:13;;;;;;;28.25;5.82;;;;;;;;;;5089932;28;20012;-67
2022/01/28 15:44:39;;;;;;;24.15;6.05;;;;;;;;;;5091359;28;20075;-67
2022/01/28 15:47:06;;;;;;;20.73;5.45;;;;;;;;;;5091523;28;20020;-67
2022/01/28 15:49:31;;;;;;;24.45;5.18;;;;;;;;;;5091977;28;20115;-67
2022/01/28 15:51:57;;;;;;;25.00;5.13;;;;;;;;;;5072938;28;20118;-67
2022/01/28 15:54:22;;;;;;;17.70;4.18;;;;;;;;;;5092069;28;20099;-67
2022/01/28 15:56:47;;;;;;;19.77;3.97;;;;;;;;;;5091043;28;20024;-67
2022/01/28 15:59:13;;;;;;;19.45;5.00;;;;;;;;;;5090697;28;20492;-67
2022/01/28 16:01:38;;;;;;;24.23;4.37;;;;;;;;;;5091996;28;20404;-67
2022/01/28 16:04:03;;;;;;;21.00;3.58;;;;;;;;;;5087974;28;20273;-67
2022/01/28 16:06:30;;;;;;;17.00;4.43;;;;;;;;;;5086755;28;20532;-67
2022/01/28 16:08:57;;;;;;;17.77;4.28;;;;;;;;;;5089464;28;20020;-67
2022/01/28 16:11:29;;;;;;;17.88;4.63;;;;;;;;;;5090920;28;20476;-67
2022/01/28 16:14:12;;;;;;;22.35;5.50;;;;;;;;;;5091393;28;20063;-67
2022/01/28 16:19:23;;;;;;;18.98;4.72;;;;;;;;;;5087802;28;20073;-67
2022/01/28 16:21:48;;;;;;;10.20;3.67;;;;;;;;;;5088957;28;20020;-67
2022/01/28 16:24:13;;;;;;;18.80;5.00;;;;;;;;;;5090863;28;20020;-67